Terminal Aerodrome Forecast
Issued by NWS

Home | Current Version | Previous Version | Graphics & Text | Print | Product List | Glossary On
Versions: 1 2 3 4 5 6 7 8 9 10 11 12 13 14 15 16 17 18 19 20
000
FTUS43 KGRB 181128
TAFRHI
TAF
KRHI 181128Z 1812/1912 22007KT P6SM SCT020 BKN120
      TEMPO 1812/1816 BKN020
     FM181900 25008KT P6SM VCSH SCT035 BKN080
      TEMPO 1820/1824 3SM TSRA BKN025CB
     FM190000 34005KT P6SM VCSH SCT015 BKN050
     FM190600 32004KT P6SM SCT080
      TEMPO 1908/1912 3SM BR=

USA.gov is the U.S. government's official web portal to all federal, state and local government web resources and services.